Sunnyvale, CA (94085)

3:01 PM PST on February 09, 2016 (GMT -0800)
Heritage District | | Change Station
CLOSE
Current Station
Personal Weather Station
Location: Sunnyvale, CA
Elevation: 105 ft
Nearby Weather Stations

Elev 105 ft 37.37 °N, 122.03 °W | Updated 40 seconds ago

Clear
Clear
75.0 °F
Feels Like 78 °F
N
6.0
Wind Variable Wind from North
Gusts 9.8 mph

Today
High -- | Low -- °F
--% Chance of Precip.
Yesterday
High -- | Low -- °F
Precip. -- in
Pressure 30.14 in
Visibility 10.0 miles
Clouds Clear
Heat Index 78 °F
Dew Point 50 °F
Humidity 41%
Rainfall 0.00 in
Snow Depth Not available.
7:04 AM 5:40 PM
New Moon, 2% visible
METAR KNUQ 092256Z 33007KT 10SM CLR 20/09 A3013 RMK AO2 SLP207 T02000094
Pressure 30.14 in
Visibility 10.0 miles
Clouds Clear
Heat Index 78 °F
Dew Point 50 °F
Humidity 41%
Rainfall 0.00 in
Snow Depth Not available.
7:04 AM 5:40 PM
New Moon, 2% visible
METAR KNUQ 092256Z 33007KT 10SM CLR 20/09 A3013 RMK AO2 SLP207 T02000094

10-Day Weather Forecast

Almanac

Astronomy

Feb. 09, 2016 Rise Set
Actual Time
Civil Twilight
Nautical Twilight
Astronomical Twilight
Moon
Length of Visible Light
Length of Day
Tomorrow will be .
, % of the Moon is Illuminated

Today's Extremes

State Highs State Lows

Community

WunderPhotos

Upload Photos

1,891,728 photos uploaded!

WunderBlog® & News

Nearby

Air Quality

  Air Quality AQ Index Pollutant
Not available.

Snow Depth

Station Depth Elevation

Earthquake Activity

City Distance Mag. Time & Date
Minimum magnitude displayed is 2.5.

Coastal Water Temperatures

Place Temperature

Stations

Nearby Weather Stations

Station Location Temp. Windchill Dew Point Humidity Wind Precip. Elev Updated Type
                   

Watches & Warnings

There are currently no watches in effect.